createdAt,value
2022-07-29T00:01:42.607Z,0.98
2022-07-29T00:04:09.974Z,1.10
2022-07-29T00:06:40.486Z,1.25
2022-07-29T00:09:08.042Z,0.90
2022-07-29T00:11:35.403Z,0.93
2022-07-29T00:14:02.805Z,0.80
2022-07-29T00:16:30.269Z,0.90
2022-07-29T00:19:00.623Z,1.20
2022-07-29T00:21:29.546Z,1.10
2022-07-29T00:23:57.068Z,1.17
2022-07-29T00:26:24.570Z,1.13
2022-07-29T00:28:52.181Z,1.30
2022-07-29T00:31:19.570Z,0.90
2022-07-29T00:33:47.162Z,0.93
2022-07-29T00:36:14.530Z,0.98
2022-07-29T00:38:45.371Z,1.10
2022-07-29T00:41:13.491Z,1.00
2022-07-29T00:43:41.931Z,1.00
2022-07-29T00:46:09.370Z,1.10
2022-07-29T00:48:36.901Z,0.98
2022-07-29T00:51:04.890Z,0.88
2022-07-29T00:53:32.891Z,0.90
2022-07-29T00:56:00.562Z,1.00
2022-07-29T00:58:28.451Z,1.40
2022-07-29T01:00:56.015Z,0.82
2022-07-29T01:03:23.535Z,1.00
2022-07-29T01:05:52.010Z,1.00
2022-07-29T01:08:20.243Z,1.10
2022-07-29T01:10:48.146Z,1.02
2022-07-29T01:13:17.804Z,1.17
2022-07-29T01:15:53.851Z,1.10
2022-07-29T01:18:40.806Z,1.13
2022-07-29T01:21:26.927Z,1.20
2022-07-29T01:24:12.935Z,0.90
2022-07-29T01:26:49.501Z,1.10
2022-07-29T01:29:19.892Z,0.85
2022-07-29T01:32:06.996Z,1.13
2022-07-29T01:34:49.803Z,1.00
2022-07-29T01:37:17.684Z,0.88
2022-07-29T01:39:46.164Z,1.10
2022-07-29T01:42:28.581Z,1.17
2022-07-29T01:45:01.461Z,1.27
2022-07-29T01:47:32.825Z,1.10
2022-07-29T01:50:05.369Z,1.00
2022-07-29T01:52:45.939Z,0.95
2022-07-29T01:55:18.379Z,0.98
2022-07-29T01:57:47.539Z,1.05
2022-07-29T02:00:15.843Z,1.73
2022-07-29T02:02:45.163Z,0.90
2022-07-29T02:05:13.327Z,1.20
2022-07-29T02:07:42.195Z,1.30
2022-07-29T02:10:10.514Z,0.90
2022-07-29T02:12:38.926Z,1.10
2022-07-29T02:15:08.798Z,1.08
2022-07-29T02:17:47.914Z,1.30
2022-07-29T02:20:15.069Z,1.20
2022-07-29T02:22:43.723Z,1.10
2022-07-29T02:25:14.207Z,0.90
2022-07-29T02:27:43.684Z,1.20
2022-07-29T02:30:12.705Z,1.00
2022-07-29T02:32:42.762Z,0.95
2022-07-29T02:35:11.800Z,1.20
2022-07-29T02:37:39.760Z,0.98
2022-07-29T02:40:11.799Z,1.10
2022-07-29T02:42:44.950Z,0.98
2022-07-29T02:45:12.082Z,1.20
2022-07-29T02:47:48.683Z,1.15
2022-07-29T02:50:22.244Z,1.10
2022-07-29T02:53:17.406Z,1.30
2022-07-29T02:55:53.968Z,1.10
2022-07-29T02:58:30.164Z,1.23
2022-07-29T03:01:00.724Z,1.00
2022-07-29T03:03:32.162Z,1.23
2022-07-29T03:06:02.129Z,1.20
2022-07-29T03:08:29.609Z,1.17
2022-07-29T03:10:57.129Z,1.00
2022-07-29T03:13:24.768Z,1.10
2022-07-29T03:15:52.618Z,1.13
2022-07-29T03:18:19.773Z,1.20
2022-07-29T03:20:46.890Z,0.93
2022-07-29T03:23:24.848Z,1.10
2022-07-29T03:25:52.241Z,1.00
2022-07-29T03:28:19.965Z,1.10
2022-07-29T03:30:49.340Z,1.00
2022-07-29T03:33:16.759Z,1.20
2022-07-29T03:35:43.799Z,1.35
2022-07-29T03:38:10.922Z,1.00
2022-07-29T03:41:02.801Z,1.17
2022-07-29T03:43:35.120Z,1.00
2022-07-29T03:46:03.357Z,1.30
2022-07-29T03:48:34.120Z,1.20
2022-07-29T03:51:01.280Z,1.30
2022-07-29T03:53:28.405Z,1.15
2022-07-29T03:56:00.503Z,1.02
2022-07-29T03:58:28.919Z,1.20
2022-07-29T04:00:57.063Z,1.30
2022-07-29T04:03:24.623Z,1.00
2022-07-29T04:06:03.723Z,1.25
2022-07-29T04:08:32.000Z,1.10
2022-07-29T04:10:59.125Z,1.50
2022-07-29T04:13:26.230Z,1.45
2022-07-29T04:15:53.274Z,1.10
2022-07-29T04:18:20.418Z,1.38
2022-07-29T04:20:47.498Z,0.98
2022-07-29T04:23:14.503Z,1.20
2022-07-29T04:25:42.294Z,1.30
2022-07-29T04:28:10.562Z,1.40
2022-07-29T04:30:38.734Z,1.00
2022-07-29T04:33:09.006Z,1.30
2022-07-29T04:35:45.741Z,1.40
2022-07-29T04:38:17.704Z,1.23
2022-07-29T04:40:44.868Z,1.42
2022-07-29T04:43:12.598Z,1.50
2022-07-29T04:45:41.379Z,1.48
2022-07-29T04:48:08.461Z,1.33
2022-07-29T04:50:35.504Z,1.40
2022-07-29T04:53:02.462Z,1.40
2022-07-29T04:55:29.395Z,1.30
2022-07-29T04:57:56.380Z,1.48
2022-07-29T05:00:33.225Z,1.40
2022-07-29T05:03:00.979Z,1.30
2022-07-29T05:05:28.222Z,1.50
2022-07-29T05:07:55.343Z,1.73
2022-07-29T05:10:22.462Z,1.20
2022-07-29T05:12:49.703Z,1.45
2022-07-29T05:15:17.743Z,1.80
2022-07-29T05:17:45.535Z,1.38
2022-07-29T05:20:12.811Z,1.65
2022-07-29T05:22:39.779Z,1.20
2022-07-29T05:25:09.293Z,1.45
2022-07-29T05:27:37.908Z,1.30
2022-07-29T05:30:05.643Z,1.40
2022-07-29T05:32:32.920Z,1.38
2022-07-29T05:34:59.961Z,1.55
2022-07-29T05:37:27.041Z,1.50
2022-07-29T05:39:57.124Z,1.58
2022-07-29T05:42:26.024Z,1.30
2022-07-29T05:44:53.832Z,1.40
2022-07-29T05:47:20.832Z,1.45
2022-07-29T05:49:47.955Z,1.70
2022-07-29T05:52:15.361Z,1.30
2022-07-29T05:54:42.472Z,1.65
2022-07-29T05:57:09.838Z,1.52
2022-07-29T05:59:38.172Z,1.50
2022-07-29T06:02:06.347Z,1.60
2022-07-29T06:04:34.791Z,1.70
2022-07-29T06:07:02.914Z,1.80
2022-07-29T06:09:30.443Z,1.30
2022-07-29T06:11:59.042Z,1.40
2022-07-29T06:14:27.702Z,1.60
2022-07-29T06:16:54.886Z,1.60
2022-07-29T06:19:22.043Z,1.60
2022-07-29T06:21:49.502Z,1.58
2022-07-29T06:24:17.362Z,1.73
2022-07-29T06:26:47.023Z,1.88
2022-07-29T06:29:14.104Z,1.80
2022-07-29T06:31:41.535Z,1.13
2022-07-29T06:34:08.764Z,1.40
2022-07-29T06:36:37.916Z,1.42
2022-07-29T06:39:07.342Z,1.40
2022-07-29T06:41:35.502Z,1.60
2022-07-29T06:44:02.702Z,1.50
2022-07-29T06:46:30.092Z,1.70
2022-07-29T06:48:57.303Z,1.60
2022-07-29T06:51:24.902Z,1.35
2022-07-29T06:53:59.526Z,1.80
2022-07-29T06:56:31.781Z,1.30
2022-07-29T06:58:59.042Z,1.65
2022-07-29T07:01:26.323Z,1.77
2022-07-29T07:03:53.522Z,1.52
2022-07-29T07:06:20.523Z,1.50
2022-07-29T07:08:47.613Z,2.03
2022-07-29T07:11:14.758Z,1.63
2022-07-29T07:13:41.804Z,1.60
2022-07-29T07:16:09.165Z,1.75
2022-07-29T07:18:36.301Z,1.52
2022-07-29T07:21:03.439Z,1.80
2022-07-29T07:23:30.521Z,1.67
2022-07-29T07:25:57.620Z,1.55
2022-07-29T07:28:25.255Z,1.85
2022-07-29T07:30:53.026Z,1.70
2022-07-29T07:33:20.667Z,1.40
2022-07-29T07:35:48.085Z,1.60
2022-07-29T07:38:15.283Z,1.90
2022-07-29T07:40:42.410Z,1.42
2022-07-29T07:43:09.545Z,1.77
2022-07-29T07:45:38.617Z,1.67
2022-07-29T07:48:06.426Z,1.50
2022-07-29T07:50:33.608Z,1.50
2022-07-29T07:53:03.176Z,1.65
2022-07-29T07:55:42.367Z,2.03
2022-07-29T07:58:17.364Z,1.60
2022-07-29T08:00:44.686Z,1.83
2022-07-29T08:03:16.969Z,1.80
2022-07-29T08:05:45.030Z,1.65
2022-07-29T08:08:12.076Z,1.55
2022-07-29T08:10:54.331Z,1.77
2022-07-29T08:13:23.423Z,1.42
2022-07-29T08:16:01.068Z,1.35
2022-07-29T08:18:30.208Z,1.50
2022-07-29T08:20:57.624Z,1.83
2022-07-29T08:23:25.432Z,1.80
2022-07-29T08:25:54.766Z,1.60
2022-07-29T08:28:25.842Z,1.70
2022-07-29T08:30:55.636Z,1.40
2022-07-29T08:33:22.995Z,1.35
2022-07-29T08:35:51.416Z,1.50
2022-07-29T08:38:18.816Z,1.45
2022-07-29T08:40:46.838Z,1.55
2022-07-29T08:43:14.446Z,1.40
2022-07-29T08:45:48.222Z,1.35
2022-07-29T08:48:16.925Z,1.60
2022-07-29T08:50:46.507Z,1.17
2022-07-29T08:53:15.688Z,1.60
2022-07-29T08:55:46.570Z,1.40
2022-07-29T08:58:15.735Z,1.40
2022-07-29T09:00:44.525Z,1.30
2022-07-29T09:03:16.629Z,1.33
2022-07-29T09:05:47.955Z,1.30
2022-07-29T09:08:16.059Z,1.45
2022-07-29T09:10:43.927Z,1.30
2022-07-29T09:13:11.347Z,1.40
2022-07-29T09:15:38.808Z,1.20
2022-07-29T09:18:06.219Z,1.35
2022-07-29T09:20:52.130Z,1.40
2022-07-29T09:23:24.864Z,1.50
2022-07-29T09:25:53.507Z,1.65
2022-07-29T09:28:22.100Z,1.35
2022-07-29T09:30:57.816Z,1.60
2022-07-29T09:33:31.945Z,1.60
2022-07-29T09:36:08.958Z,1.23
2022-07-29T09:38:37.859Z,1.50
2022-07-29T09:41:06.953Z,1.67
2022-07-29T09:43:35.185Z,1.48
2022-07-29T09:46:13.169Z,1.60
2022-07-29T09:48:40.534Z,1.42
2022-07-29T09:51:23.017Z,1.48
2022-07-29T09:53:56.828Z,1.90
2022-07-29T09:56:42.728Z,2.60
2022-07-29T09:59:12.195Z,2.50
2022-07-29T10:01:39.755Z,2.85
2022-07-29T10:04:07.209Z,2.92
2022-07-29T10:06:34.587Z,3.22
2022-07-29T10:09:12.010Z,3.50
2022-07-29T10:11:49.288Z,3.30
2022-07-29T10:14:17.349Z,3.08
2022-07-29T10:16:45.095Z,2.67
2022-07-29T10:19:12.728Z,2.90
2022-07-29T10:21:44.296Z,2.53
2022-07-29T10:24:14.881Z,2.60
2022-07-29T10:26:42.994Z,1.92
2022-07-29T10:29:10.565Z,2.33
2022-07-29T10:31:49.353Z,2.30
2022-07-29T10:34:25.211Z,2.08
2022-07-29T10:36:52.953Z,2.00
2022-07-29T10:39:44.409Z,2.35
2022-07-29T10:42:12.634Z,2.40
2022-07-29T10:44:43.889Z,2.20
2022-07-29T10:47:21.914Z,2.28
2022-07-29T10:50:01.118Z,2.22
2022-07-29T10:52:47.562Z,2.30
2022-07-29T10:55:34.553Z,2.20
2022-07-29T10:58:14.680Z,1.98
2022-07-29T11:00:42.702Z,1.92
2022-07-29T11:03:33.007Z,2.35
2022-07-29T11:06:00.713Z,2.40
2022-07-29T11:08:28.420Z,2.22
2022-07-29T11:11:17.456Z,2.25
2022-07-29T11:13:46.518Z,2.80
2022-07-29T11:16:16.196Z,2.38
2022-07-29T11:19:02.272Z,2.00
2022-07-29T11:24:30.216Z,2.40
2022-07-29T11:27:18.276Z,2.63
2022-07-29T11:30:04.819Z,2.35
2022-07-29T11:32:41.440Z,2.40
2022-07-29T11:35:38.325Z,2.83
2022-07-29T11:38:28.029Z,2.53
2022-07-29T11:41:19.145Z,2.70
2022-07-29T11:43:52.640Z,2.55
2022-07-29T11:46:50.126Z,2.70
2022-07-29T11:49:32.312Z,2.70
2022-07-29T11:52:04.205Z,2.83
2022-07-29T11:57:36.075Z,2.50
2022-07-29T12:00:12.295Z,2.60
2022-07-29T12:02:43.349Z,2.53
2022-07-29T12:05:14.701Z,2.50
2022-07-29T12:07:47.151Z,2.70
2022-07-29T12:10:19.772Z,2.45
2022-07-29T12:12:53.870Z,2.35
2022-07-29T12:15:22.326Z,2.70
2022-07-29T12:17:49.930Z,2.70
2022-07-29T12:20:28.310Z,2.53
2022-07-29T12:23:05.961Z,2.00
2022-07-29T12:25:35.940Z,2.25
2022-07-29T12:28:05.905Z,2.17
2022-07-29T12:30:49.682Z,2.63
2022-07-29T12:33:27.600Z,2.47
2022-07-29T12:36:12.823Z,3.20
2022-07-29T12:38:44.662Z,2.20
2022-07-29T12:41:11.902Z,2.78
2022-07-29T12:43:55.979Z,2.33
2022-07-29T12:46:23.126Z,2.22
2022-07-29T12:48:58.454Z,2.50
2022-07-29T12:51:41.773Z,2.60
2022-07-29T12:54:14.630Z,2.45
2022-07-29T12:56:44.327Z,2.42
2022-07-29T12:59:17.565Z,2.47
2022-07-29T13:01:45.668Z,2.05
2022-07-29T13:04:24.746Z,2.30
2022-07-29T13:07:09.200Z,2.30
2022-07-29T13:09:43.010Z,2.28
2022-07-29T13:12:12.766Z,2.50
2022-07-29T13:14:51.132Z,1.90
2022-07-29T13:17:32.801Z,2.03
2022-07-29T13:20:13.431Z,2.40
2022-07-29T13:22:41.266Z,2.10
2022-07-29T13:25:09.226Z,1.80
2022-07-29T13:27:38.870Z,2.10
2022-07-29T13:30:08.663Z,1.92
2022-07-29T13:32:37.127Z,1.80
2022-07-29T13:35:06.918Z,1.70
2022-07-29T13:37:39.616Z,2.20
2022-07-29T13:40:08.258Z,2.03
2022-07-29T13:42:35.659Z,2.13
2022-07-29T13:45:03.099Z,2.05
2022-07-29T13:47:32.541Z,2.22
2022-07-29T13:50:01.258Z,2.10
2022-07-29T13:52:29.638Z,2.20
2022-07-29T13:54:59.799Z,2.30
2022-07-29T13:57:27.225Z,2.35
2022-07-29T13:59:54.753Z,2.95
2022-07-29T14:02:25.672Z,2.65
2022-07-29T14:04:53.889Z,2.42
2022-07-29T14:07:21.458Z,2.80
2022-07-29T14:09:48.798Z,2.50
2022-07-29T14:12:16.138Z,2.97
2022-07-29T14:14:43.618Z,2.50
2022-07-29T14:17:11.271Z,2.72
2022-07-29T14:19:39.369Z,3.47
2022-07-29T14:22:07.301Z,3.03
2022-07-29T14:24:37.121Z,2.47
2022-07-29T14:27:05.160Z,3.30
2022-07-29T14:29:35.223Z,2.88
2022-07-29T14:32:08.892Z,3.20
2022-07-29T14:34:37.200Z,2.80
2022-07-29T14:37:06.689Z,2.95
2022-07-29T14:39:36.931Z,2.67
2022-07-29T14:42:07.138Z,2.67
2022-07-29T14:44:34.548Z,2.75
2022-07-29T14:47:07.443Z,3.08
2022-07-29T14:49:35.539Z,2.70
2022-07-29T14:52:03.019Z,2.60
2022-07-29T14:54:30.460Z,3.13
2022-07-29T14:56:58.725Z,2.78
2022-07-29T14:59:26.653Z,2.72
2022-07-29T15:01:54.238Z,3.08
2022-07-29T15:04:21.916Z,2.80
2022-07-29T15:06:49.626Z,2.80
2022-07-29T15:09:17.009Z,2.70
2022-07-29T15:11:44.669Z,2.47
2022-07-29T15:14:12.130Z,2.38
2022-07-29T15:16:41.964Z,2.13
2022-07-29T15:19:11.728Z,2.67
2022-07-29T15:21:41.550Z,2.70
2022-07-29T15:24:16.767Z,2.67
2022-07-29T15:26:44.985Z,2.35
2022-07-29T15:29:12.388Z,2.50
2022-07-29T15:31:39.916Z,2.72
2022-07-29T15:34:08.919Z,2.35
2022-07-29T15:36:51.631Z,2.45
2022-07-29T15:39:21.073Z,2.78
2022-07-29T15:41:48.546Z,2.65
2022-07-29T15:44:15.918Z,2.40
2022-07-29T15:47:02.597Z,2.60
2022-07-29T15:49:46.390Z,2.60
2022-07-29T15:52:17.898Z,2.72
2022-07-29T15:54:45.914Z,2.47
2022-07-29T15:57:13.562Z,2.47
2022-07-29T15:59:40.959Z,2.25
2022-07-29T16:02:08.546Z,2.42
2022-07-29T16:04:35.899Z,2.80
2022-07-29T16:07:04.019Z,2.20
2022-07-29T16:09:31.419Z,2.15
2022-07-29T16:11:58.779Z,2.53
2022-07-29T16:14:28.485Z,2.13
2022-07-29T16:16:56.539Z,1.95
2022-07-29T16:19:24.303Z,2.20
2022-07-29T16:21:51.746Z,2.40
2022-07-29T16:24:19.320Z,1.80
2022-07-29T16:26:46.699Z,1.80
2022-07-29T16:29:14.061Z,1.80
2022-07-29T16:31:41.450Z,1.90
2022-07-29T16:34:08.979Z,1.40
2022-07-29T16:36:36.427Z,1.58
2022-07-29T16:39:05.747Z,1.50
2022-07-29T16:41:33.247Z,1.33
2022-07-29T16:44:00.720Z,1.77
2022-07-29T16:46:28.148Z,1.35
2022-07-29T16:48:55.936Z,1.30
2022-07-29T16:51:23.679Z,1.70
2022-07-29T16:53:51.070Z,1.30
2022-07-29T16:56:18.543Z,1.38
2022-07-29T16:58:45.940Z,1.13
2022-07-29T17:01:13.442Z,1.20
2022-07-29T17:04:00.886Z,1.35
2022-07-29T17:06:29.382Z,1.20
2022-07-29T17:08:57.197Z,1.50
2022-07-29T17:11:52.609Z,1.50
2022-07-29T17:14:12.112Z,1.50
2022-07-29T17:16:39.612Z,1.60
2022-07-29T17:19:07.061Z,1.80
2022-07-29T17:21:34.448Z,2.13
2022-07-29T17:24:01.799Z,1.90
2022-07-29T17:26:29.180Z,1.77
2022-07-29T17:28:56.750Z,1.92
2022-07-29T17:31:24.289Z,1.73
2022-07-29T17:33:51.859Z,1.77
2022-07-29T17:36:25.487Z,2.20
2022-07-29T17:38:53.359Z,1.80
2022-07-29T17:41:21.301Z,1.85
2022-07-29T17:43:49.320Z,1.77
2022-07-29T17:46:17.329Z,1.90
2022-07-29T17:48:44.965Z,1.77
2022-07-29T17:51:12.644Z,2.20
2022-07-29T17:53:40.459Z,2.15
2022-07-29T17:56:07.979Z,1.75
2022-07-29T17:58:35.441Z,1.80
2022-07-29T18:01:02.924Z,1.58
2022-07-29T18:03:30.344Z,2.00
2022-07-29T18:05:57.743Z,1.88
2022-07-29T18:08:28.184Z,1.67
2022-07-29T18:10:55.945Z,1.58
2022-07-29T18:13:23.424Z,1.70
2022-07-29T18:15:51.014Z,1.83
2022-07-29T18:18:18.746Z,1.83
2022-07-29T18:20:46.765Z,1.50
2022-07-29T18:23:14.456Z,2.03
2022-07-29T18:25:41.985Z,1.70
2022-07-29T18:28:09.742Z,1.42
2022-07-29T18:30:37.943Z,1.70
2022-07-29T18:33:20.735Z,1.75
2022-07-29T18:35:50.283Z,1.77
2022-07-29T18:38:18.043Z,1.83
2022-07-29T18:40:46.092Z,1.63
2022-07-29T18:43:13.793Z,1.63
2022-07-29T18:45:42.556Z,1.50
2022-07-29T18:48:12.932Z,1.63
2022-07-29T18:50:41.384Z,2.10
2022-07-29T18:53:09.249Z,1.52
2022-07-29T18:55:36.649Z,1.67
2022-07-29T18:58:04.147Z,1.60
2022-07-29T19:00:31.479Z,1.48
2022-07-29T19:03:00.015Z,1.85
2022-07-29T19:05:27.496Z,1.33
2022-07-29T19:07:56.229Z,1.48
2022-07-29T19:10:23.675Z,1.60
2022-07-29T19:12:51.447Z,1.73
2022-07-29T19:15:20.491Z,1.60
2022-07-29T19:17:48.702Z,1.42
2022-07-29T19:20:16.215Z,1.60
2022-07-29T19:22:43.627Z,1.58
2022-07-29T19:25:11.190Z,1.30
2022-07-29T19:27:38.566Z,1.40
2022-07-29T19:30:07.851Z,1.40
2022-07-29T19:32:35.216Z,1.63
2022-07-29T19:35:21.509Z,1.58
2022-07-29T19:37:48.907Z,1.60
2022-07-29T19:40:16.489Z,1.20
2022-07-29T19:42:44.346Z,1.30
2022-07-29T19:45:12.067Z,1.48
2022-07-29T19:47:39.507Z,1.60
2022-07-29T19:50:07.166Z,1.67
2022-07-29T19:52:34.647Z,1.77
2022-07-29T19:55:07.078Z,1.30
2022-07-29T19:57:40.779Z,1.50
2022-07-29T20:00:11.043Z,1.95
2022-07-29T20:02:40.223Z,2.38
2022-07-29T20:05:08.288Z,1.60
2022-07-29T20:07:35.887Z,1.58
2022-07-29T20:10:03.968Z,1.40
2022-07-29T20:12:31.355Z,1.40
2022-07-29T20:14:58.994Z,1.45
2022-07-29T20:17:27.267Z,1.35
2022-07-29T20:19:54.687Z,1.40
2022-07-29T20:22:22.669Z,1.17
2022-07-29T20:24:50.069Z,1.30
2022-07-29T20:27:17.507Z,1.88
2022-07-29T20:29:44.867Z,1.30
2022-07-29T20:32:12.609Z,2.03
2022-07-29T20:34:42.948Z,1.77
2022-07-29T20:37:11.607Z,1.60
2022-07-29T20:39:39.147Z,1.60
2022-07-29T20:42:07.200Z,1.77
2022-07-29T20:44:34.649Z,1.80
2022-07-29T20:47:03.368Z,1.70
2022-07-29T20:49:31.055Z,1.77
2022-07-29T20:51:58.832Z,1.42
2022-07-29T20:54:26.375Z,1.42
2022-07-29T20:56:53.808Z,1.60
2022-07-29T20:59:21.228Z,1.30
2022-07-29T21:01:48.773Z,1.48
2022-07-29T21:04:16.809Z,1.48
2022-07-29T21:06:44.168Z,1.52
2022-07-29T21:09:11.588Z,1.90
2022-07-29T21:11:44.068Z,2.03
2022-07-29T21:14:32.679Z,2.38
2022-07-29T21:17:01.815Z,2.40
2022-07-29T21:19:32.353Z,1.73
2022-07-29T21:21:59.787Z,1.45
2022-07-29T21:24:27.327Z,2.00
2022-07-29T21:27:20.887Z,1.70
2022-07-29T21:29:49.197Z,1.48
2022-07-29T21:32:28.471Z,1.60
2022-07-29T21:34:57.816Z,1.70
2022-07-29T21:37:25.207Z,1.50
2022-07-29T21:39:52.811Z,1.40
2022-07-29T21:42:20.411Z,1.63
2022-07-29T21:44:47.815Z,1.40
2022-07-29T21:47:15.215Z,1.80
2022-07-29T21:49:42.627Z,1.65
2022-07-29T21:52:10.109Z,1.73
2022-07-29T21:54:38.787Z,1.45
2022-07-29T21:57:06.921Z,1.33
2022-07-29T21:59:34.493Z,1.60
2022-07-29T22:02:02.256Z,1.70
2022-07-29T22:04:30.544Z,1.60
2022-07-29T22:06:58.616Z,1.30
2022-07-29T22:09:26.328Z,1.08
2022-07-29T22:11:53.767Z,1.40
2022-07-29T22:14:21.347Z,1.30
2022-07-29T22:16:49.196Z,1.55
2022-07-29T22:19:16.647Z,1.40
2022-07-29T22:21:44.488Z,1.70
2022-07-29T22:24:11.990Z,1.10
2022-07-29T22:26:39.410Z,1.42
2022-07-29T22:29:07.008Z,1.50
2022-07-29T22:31:34.467Z,1.38
2022-07-29T22:34:01.927Z,1.40
2022-07-29T22:36:29.310Z,1.42
2022-07-29T22:38:56.776Z,1.40
2022-07-29T22:41:24.265Z,1.40
2022-07-29T22:43:51.646Z,1.85
2022-07-29T22:46:19.100Z,1.50
2022-07-29T22:48:46.600Z,1.40
2022-07-29T22:51:14.068Z,1.23
2022-07-29T22:53:41.533Z,1.52
2022-07-29T22:56:08.953Z,1.20
2022-07-29T22:58:37.774Z,1.45
2022-07-29T23:01:05.309Z,1.10
2022-07-29T23:03:32.736Z,1.40
2022-07-29T23:06:00.122Z,1.10
2022-07-29T23:08:27.503Z,1.33
2022-07-29T23:10:54.883Z,1.25
2022-07-29T23:13:22.284Z,1.08
2022-07-29T23:15:49.744Z,1.33
2022-07-29T23:18:17.163Z,1.17
2022-07-29T23:20:44.784Z,1.10
2022-07-29T23:23:15.023Z,1.10
2022-07-29T23:25:42.525Z,1.20
2022-07-29T23:28:11.481Z,1.20
2022-07-29T23:30:40.859Z,1.35
2022-07-29T23:33:08.305Z,1.40
2022-07-29T23:35:35.827Z,1.25
2022-07-29T23:38:03.302Z,1.20
2022-07-29T23:40:30.813Z,1.33
2022-07-29T23:42:58.233Z,1.40
2022-07-29T23:45:33.055Z,1.25
2022-07-29T23:48:10.371Z,1.08
2022-07-29T23:50:37.791Z,1.20
2022-07-29T23:53:05.231Z,1.20
2022-07-29T23:55:38.034Z,1.40
2022-07-29T23:58:06.491Z,1.30
